Terminal Aerodrome Forecast
Issued by NWS

Current Version | Previous Version | Graphics & Text | Print | Product List | Glossary On
Versions: 1 2 3 4 5 6 7 8 9 10 11 12 13 14 15 16 17 18 19 20 21 22 23 24 25
000
FTUS41 KRLX 151005 AAA
TAFCKB
TAF AMD
KCKB 151005Z 1510/1606 00000KT P6SM BKN120
     FM151100 00000KT P6SM OVC040
     FM151900 19006KT P6SM OVC060=

USA.gov is the U.S. government's official web portal to all federal, state and local government web resources and services.